createdAt,value
2023-02-02T00:01:01.348Z,0.00
2023-02-02T00:02:04.125Z,0.75
2023-02-02T00:03:08.625Z,1.50
2023-02-02T00:04:20.327Z,2.00
2023-02-02T00:05:23.153Z,0.00
2023-02-02T00:06:28.531Z,0.00
2023-02-02T00:07:31.164Z,0.00
2023-02-02T00:08:34.953Z,1.00
2023-02-02T00:09:37.600Z,1.00
2023-02-02T00:10:40.327Z,1.00
2023-02-02T00:11:44.243Z,0.00
2023-02-02T00:12:46.894Z,0.00
2023-02-02T00:13:49.585Z,1.25
2023-02-02T00:14:53.959Z,1.00
2023-02-02T00:15:56.687Z,1.00
2023-02-02T00:16:59.549Z,1.50
2023-02-02T00:18:03.271Z,3.00
2023-02-02T00:19:12.341Z,2.00
2023-02-02T00:20:14.947Z,3.00
2023-02-02T00:21:17.586Z,0.50
2023-02-02T00:22:22.253Z,0.00
2023-02-02T00:23:25.041Z,0.00
2023-02-02T00:24:27.779Z,0.00
2023-02-02T00:25:30.467Z,0.00
2023-02-02T00:26:35.457Z,0.00
2023-02-02T00:27:38.117Z,0.00
2023-02-02T00:28:40.763Z,1.00
2023-02-02T00:29:43.393Z,0.00
2023-02-02T00:30:46.604Z,0.00
2023-02-02T00:31:49.530Z,0.00
2023-02-02T00:32:54.099Z,0.00
2023-02-02T00:33:58.746Z,0.00
2023-02-02T00:35:01.586Z,0.00
2023-02-02T00:36:05.060Z,0.00
2023-02-02T00:37:07.942Z,0.00
2023-02-02T00:38:10.590Z,0.00
2023-02-02T00:39:17.053Z,0.00
2023-02-02T00:40:19.686Z,0.00
2023-02-02T00:41:22.435Z,0.00
2023-02-02T00:42:25.153Z,0.00
2023-02-02T00:43:27.761Z,1.00
2023-02-02T00:44:48.637Z,0.00
2023-02-02T00:45:53.311Z,0.00
2023-02-02T00:46:55.990Z,0.25
2023-02-02T00:48:00.748Z,0.75
2023-02-02T00:49:03.437Z,0.00
2023-02-02T00:50:06.555Z,0.00
2023-02-02T00:51:12.424Z,0.00
2023-02-02T00:52:17.203Z,0.00
2023-02-02T00:53:19.962Z,0.00
2023-02-02T00:54:22.611Z,0.00
2023-02-02T00:55:27.597Z,0.00
2023-02-02T00:56:30.323Z,0.00
2023-02-02T00:57:32.943Z,0.00
2023-02-02T00:58:37.306Z,0.00
2023-02-02T00:59:41.874Z,0.00
2023-02-02T01:00:44.590Z,0.00
2023-02-02T01:01:47.314Z,0.00
2023-02-02T01:02:50.503Z,0.00
2023-02-02T01:03:55.475Z,0.00
2023-02-02T01:04:58.211Z,0.00
2023-02-02T01:06:00.826Z,0.00
2023-02-02T01:07:03.524Z,0.00
2023-02-02T01:08:09.268Z,0.00
2023-02-02T01:09:11.964Z,0.00
2023-02-02T01:10:18.421Z,0.00
2023-02-02T01:11:21.096Z,0.00
2023-02-02T01:12:23.842Z,0.00
2023-02-02T01:13:26.469Z,0.00
2023-02-02T01:14:29.289Z,0.00
2023-02-02T01:15:32.367Z,0.00
2023-02-02T01:16:35.172Z,0.00
2023-02-02T01:17:37.936Z,0.00
2023-02-02T01:18:41.037Z,0.00
2023-02-02T01:19:44.899Z,0.00
2023-02-02T01:20:47.541Z,0.00
2023-02-02T01:21:50.222Z,0.00
2023-02-02T01:22:53.508Z,0.00
2023-02-02T01:23:56.136Z,0.00
2023-02-02T01:24:58.804Z,0.00
2023-02-02T01:26:03.710Z,0.00
2023-02-02T01:27:06.329Z,0.00
2023-02-02T01:28:08.975Z,0.00
2023-02-02T01:29:11.684Z,0.00
2023-02-02T01:30:15.010Z,0.00
2023-02-02T01:31:20.654Z,0.00
2023-02-02T01:32:23.328Z,0.00
2023-02-02T01:33:26.828Z,0.00
2023-02-02T01:34:31.357Z,0.00
2023-02-02T01:35:34.518Z,0.00
2023-02-02T01:36:38.909Z,0.00
2023-02-02T01:37:41.595Z,0.00
2023-02-02T01:38:44.876Z,0.00
2023-02-02T01:39:49.912Z,0.00
2023-02-02T01:40:56.727Z,0.00
2023-02-02T01:41:59.453Z,0.00
2023-02-02T01:43:02.082Z,0.00
2023-02-02T01:44:07.259Z,0.00
2023-02-02T01:45:22.041Z,0.00
2023-02-02T01:46:28.536Z,0.00
2023-02-02T01:47:41.943Z,0.00
2023-02-02T01:48:49.174Z,0.00
2023-02-02T01:49:52.392Z,0.00
2023-02-02T01:51:09.283Z,0.00
2023-02-02T01:52:15.460Z,0.00
2023-02-02T01:53:21.008Z,0.00
2023-02-02T01:54:33.830Z,0.00
2023-02-02T01:55:39.834Z,0.00
2023-02-02T01:56:49.743Z,0.00
2023-02-02T01:58:03.763Z,0.00
2023-02-02T01:59:07.768Z,0.00
2023-02-02T02:00:13.872Z,0.00
2023-02-02T02:01:16.594Z,0.00
2023-02-02T02:02:19.623Z,0.00
2023-02-02T02:03:26.152Z,0.00
2023-02-02T02:04:31.823Z,0.00
2023-02-02T02:05:39.393Z,0.00
2023-02-02T02:06:43.558Z,0.00
2023-02-02T02:07:48.428Z,0.00
2023-02-02T02:08:57.482Z,0.00
2023-02-02T02:10:00.308Z,0.00
2023-02-02T02:11:03.020Z,0.00
2023-02-02T02:12:16.493Z,0.00
2023-02-02T02:13:21.683Z,0.00
2023-02-02T02:14:43.391Z,0.00
2023-02-02T02:16:18.167Z,0.00
2023-02-02T02:17:26.657Z,0.00
2023-02-02T02:18:38.670Z,0.00
2023-02-02T02:20:05.841Z,0.00
2023-02-02T02:21:44.172Z,0.00
2023-02-02T02:23:14.329Z,0.00
2023-02-02T02:25:01.710Z,0.00
2023-02-02T02:26:37.586Z,0.00
2023-02-02T02:28:10.940Z,0.00
2023-02-02T02:29:32.903Z,0.00
2023-02-02T02:31:00.344Z,0.00
2023-02-02T02:32:16.378Z,0.00
2023-02-02T02:33:30.710Z,0.00
2023-02-02T02:34:49.654Z,0.00
2023-02-02T02:36:06.495Z,0.00
2023-02-02T02:37:15.459Z,0.00
2023-02-02T02:38:31.691Z,0.00
2023-02-02T02:39:46.679Z,0.00
2023-02-02T02:40:57.912Z,0.00
2023-02-02T02:42:12.769Z,0.00
2023-02-02T02:43:33.096Z,0.00
2023-02-02T02:44:37.476Z,0.00
2023-02-02T02:45:40.998Z,0.00
2023-02-02T02:46:44.558Z,0.00
2023-02-02T02:47:49.602Z,0.00
2023-02-02T02:48:52.419Z,0.00
2023-02-02T02:49:55.067Z,0.00
2023-02-02T02:51:49.199Z,0.00
2023-02-02T02:53:01.016Z,0.00
2023-02-02T02:54:04.146Z,0.00
2023-02-02T02:55:09.280Z,0.00
2023-02-02T02:56:25.029Z,0.00
2023-02-02T02:57:43.057Z,0.00
2023-02-02T02:59:03.073Z,0.00
2023-02-02T03:00:27.261Z,0.00
2023-02-02T03:01:41.318Z,0.00
2023-02-02T03:03:10.388Z,0.00
2023-02-02T03:04:36.611Z,0.00
2023-02-02T03:06:08.501Z,0.00
2023-02-02T03:07:25.042Z,0.00
2023-02-02T03:08:32.307Z,0.00
2023-02-02T03:09:39.191Z,0.00
2023-02-02T03:10:45.245Z,0.00
2023-02-02T03:11:50.233Z,0.00
2023-02-02T03:12:53.219Z,0.00
2023-02-02T03:13:56.629Z,0.00
2023-02-02T03:14:59.259Z,0.00
2023-02-02T03:16:02.074Z,0.00
2023-02-02T03:17:04.892Z,0.00
2023-02-02T03:18:07.568Z,0.00
2023-02-02T03:19:14.375Z,0.00
2023-02-02T03:20:19.428Z,0.00
2023-02-02T03:21:22.084Z,0.00
2023-02-02T03:22:24.734Z,0.00
2023-02-02T03:23:28.368Z,0.00
2023-02-02T03:24:31.376Z,0.00
2023-02-02T03:25:35.974Z,0.00
2023-02-02T03:26:41.431Z,0.00
2023-02-02T03:27:44.640Z,0.00
2023-02-02T03:28:47.536Z,0.00
2023-02-02T03:29:50.186Z,0.00
2023-02-02T03:30:55.678Z,0.00
2023-02-02T03:31:58.461Z,0.00
2023-02-02T03:33:01.356Z,0.00
2023-02-02T03:34:04.058Z,0.00
2023-02-02T03:35:09.228Z,0.00
2023-02-02T03:36:11.884Z,0.00
2023-02-02T03:37:18.048Z,0.00
2023-02-02T03:38:22.789Z,0.00
2023-02-02T03:39:25.638Z,0.00
2023-02-02T03:40:29.824Z,0.00
2023-02-02T03:41:32.465Z,0.00
2023-02-02T03:42:35.120Z,0.00
2023-02-02T03:43:37.740Z,0.00
2023-02-02T03:44:40.380Z,0.00
2023-02-02T03:45:43.052Z,0.00
2023-02-02T03:46:45.734Z,0.00
2023-02-02T03:47:48.371Z,0.00
2023-02-02T03:48:51.131Z,0.00
2023-02-02T03:49:53.851Z,0.00
2023-02-02T03:50:59.734Z,0.00
2023-02-02T03:52:03.834Z,0.00
2023-02-02T03:53:06.833Z,0.00
2023-02-02T03:54:09.450Z,0.00
2023-02-02T03:55:12.119Z,0.00
2023-02-02T03:56:15.264Z,0.00
2023-02-02T03:57:18.068Z,0.00
2023-02-02T03:58:25.486Z,0.00
2023-02-02T03:59:28.258Z,0.00
2023-02-02T04:00:36.082Z,0.00
2023-02-02T04:01:38.744Z,0.00
2023-02-02T04:02:41.407Z,0.00
2023-02-02T04:03:44.298Z,0.00
2023-02-02T04:04:48.272Z,0.00
2023-02-02T04:05:51.889Z,0.00
2023-02-02T04:06:54.599Z,0.00
2023-02-02T04:07:59.261Z,0.00
2023-02-02T04:09:03.846Z,0.00
2023-02-02T04:10:06.779Z,0.00
2023-02-02T04:11:12.712Z,0.00
2023-02-02T04:12:17.309Z,0.00
2023-02-02T04:13:19.973Z,0.00
2023-02-02T04:14:22.624Z,0.00
2023-02-02T04:15:25.785Z,0.00
2023-02-02T04:16:31.327Z,0.00
2023-02-02T04:17:34.058Z,0.00
2023-02-02T04:18:38.986Z,0.00
2023-02-02T04:19:41.644Z,0.00
2023-02-02T04:20:46.559Z,0.00
2023-02-02T04:21:50.931Z,0.00
2023-02-02T04:22:57.441Z,0.00
2023-02-02T04:24:00.126Z,0.00
2023-02-02T04:25:02.909Z,0.00
2023-02-02T04:26:08.919Z,0.00
2023-02-02T04:27:13.576Z,0.00
2023-02-02T04:28:16.192Z,0.00
2023-02-02T04:29:18.895Z,0.00
2023-02-02T04:30:21.732Z,0.00
2023-02-02T04:31:24.753Z,0.00
2023-02-02T04:32:27.406Z,0.00
2023-02-02T04:33:30.194Z,0.00
2023-02-02T04:34:35.468Z,0.00
2023-02-02T04:35:38.065Z,0.00
2023-02-02T04:36:40.843Z,0.00
2023-02-02T04:37:43.431Z,0.00
2023-02-02T04:38:54.953Z,0.00
2023-02-02T04:40:04.868Z,0.00
2023-02-02T04:41:12.029Z,0.00
2023-02-02T04:42:15.876Z,0.00
2023-02-02T04:43:18.615Z,0.00
2023-02-02T04:44:21.234Z,0.00
2023-02-02T04:45:24.277Z,0.00
2023-02-02T04:46:27.767Z,0.00
2023-02-02T04:47:30.406Z,0.00
2023-02-02T04:48:33.502Z,0.00
2023-02-02T04:49:36.131Z,0.00
2023-02-02T04:50:39.842Z,0.00
2023-02-02T04:51:42.883Z,0.00
2023-02-02T04:52:45.587Z,0.00
2023-02-02T04:53:51.361Z,0.00
2023-02-02T04:54:54.226Z,0.00
2023-02-02T04:55:57.368Z,0.00
2023-02-02T04:57:00.110Z,0.00
2023-02-02T04:58:02.716Z,0.00
2023-02-02T04:59:05.467Z,0.00
2023-02-02T05:00:09.054Z,0.00
2023-02-02T05:01:11.856Z,0.00
2023-02-02T05:02:14.625Z,0.00
2023-02-02T05:03:17.494Z,0.00
2023-02-02T05:04:20.200Z,0.00
2023-02-02T05:05:23.390Z,0.00
2023-02-02T05:06:26.504Z,0.00
2023-02-02T05:07:29.247Z,0.00
2023-02-02T05:08:32.401Z,0.00
2023-02-02T05:09:35.130Z,0.00
2023-02-02T05:10:41.953Z,0.00
2023-02-02T05:11:45.666Z,0.00
2023-02-02T05:12:48.337Z,0.00
2023-02-02T05:13:56.575Z,0.00
2023-02-02T05:15:02.128Z,0.00
2023-02-02T05:16:05.068Z,0.00
2023-02-02T05:17:07.721Z,0.00
2023-02-02T05:18:10.361Z,0.00
2023-02-02T05:19:13.636Z,0.00
2023-02-02T05:20:16.850Z,0.00
2023-02-02T05:22:36.372Z,0.00
2023-02-02T05:23:39.016Z,0.00
2023-02-02T05:24:42.871Z,0.00
2023-02-02T05:25:47.262Z,0.00
2023-02-02T05:26:49.936Z,0.00
2023-02-02T05:27:52.588Z,0.00
2023-02-02T05:28:55.322Z,0.00
2023-02-02T05:29:58.052Z,0.00
2023-02-02T05:31:00.743Z,0.00
2023-02-02T05:32:03.495Z,0.00
2023-02-02T05:33:06.141Z,0.00
2023-02-02T05:34:12.395Z,0.00
2023-02-02T05:35:16.773Z,0.00
2023-02-02T05:36:19.584Z,0.00
2023-02-02T05:37:22.392Z,0.00
2023-02-02T05:38:26.147Z,0.00
2023-02-02T05:39:28.874Z,0.00
2023-02-02T05:40:31.550Z,0.00
2023-02-02T05:41:34.310Z,0.00
2023-02-02T05:42:37.018Z,0.00
2023-02-02T05:43:39.697Z,0.00
2023-02-02T05:44:44.848Z,0.00
2023-02-02T05:45:47.443Z,0.00
2023-02-02T05:46:50.041Z,0.00
2023-02-02T05:47:56.912Z,0.00
2023-02-02T05:49:07.732Z,0.00
2023-02-02T05:50:11.153Z,0.00
2023-02-02T05:51:20.600Z,0.00
2023-02-02T05:52:25.358Z,0.00
2023-02-02T05:53:30.191Z,0.00
2023-02-02T05:54:36.128Z,0.00
2023-02-02T05:55:38.794Z,0.00
2023-02-02T05:56:41.409Z,0.00
2023-02-02T05:57:44.097Z,0.00
2023-02-02T05:58:49.193Z,0.00
2023-02-02T05:59:51.862Z,0.00
2023-02-02T06:00:56.626Z,0.00
2023-02-02T06:01:59.502Z,0.00
2023-02-02T06:03:02.276Z,0.00
2023-02-02T06:04:05.100Z,0.00
2023-02-02T06:05:08.303Z,0.00
2023-02-02T06:06:11.039Z,0.00
2023-02-02T06:07:14.283Z,0.00
2023-02-02T06:08:17.292Z,0.00
2023-02-02T06:09:22.219Z,0.00
2023-02-02T06:10:24.881Z,0.00
2023-02-02T06:11:27.460Z,0.00
2023-02-02T06:12:32.628Z,0.00
2023-02-02T06:13:36.870Z,0.00
2023-02-02T06:14:39.601Z,0.00
2023-02-02T06:15:45.593Z,0.00
2023-02-02T06:16:48.318Z,0.00
2023-02-02T06:17:53.932Z,0.00
2023-02-02T06:18:56.755Z,0.50
2023-02-02T06:20:00.528Z,1.50
2023-02-02T06:21:05.070Z,3.00
2023-02-02T06:22:08.394Z,0.00
2023-02-02T06:23:12.049Z,0.00
2023-02-02T06:24:14.837Z,0.00
2023-02-02T06:25:17.555Z,1.00
2023-02-02T06:26:20.635Z,1.25
2023-02-02T06:27:23.365Z,0.00
2023-02-02T06:28:26.263Z,0.00
2023-02-02T06:29:32.096Z,0.00
2023-02-02T06:30:34.863Z,0.00
2023-02-02T06:31:37.657Z,0.00
2023-02-02T06:32:40.465Z,0.00
2023-02-02T06:33:43.137Z,0.00
2023-02-02T06:34:45.822Z,0.00
2023-02-02T06:35:48.522Z,0.00
2023-02-02T06:36:51.194Z,0.00
2023-02-02T06:37:54.186Z,0.25
2023-02-02T06:38:58.554Z,3.00
2023-02-02T06:40:02.006Z,0.50
2023-02-02T06:41:07.499Z,0.00
2023-02-02T06:42:20.709Z,0.00
2023-02-02T06:43:24.242Z,0.00
2023-02-02T06:44:26.979Z,0.75
2023-02-02T06:45:30.926Z,1.00
2023-02-02T06:46:35.028Z,0.00
2023-02-02T06:47:37.672Z,0.00
2023-02-02T06:48:41.296Z,0.00
2023-02-02T06:49:43.960Z,4.50
2023-02-02T06:50:46.608Z,10.00
2023-02-02T06:51:49.702Z,12.00
2023-02-02T06:52:53.763Z,20.25
2023-02-02T06:53:59.569Z,21.00
2023-02-02T06:55:02.354Z,15.25
2023-02-02T06:56:08.213Z,10.00
2023-02-02T06:57:10.863Z,2.25
2023-02-02T06:58:13.465Z,1.00
2023-02-02T06:59:16.071Z,0.00
2023-02-02T07:00:20.596Z,1.00
2023-02-02T07:01:23.342Z,1.00
2023-02-02T07:02:26.103Z,0.00
2023-02-02T07:03:31.300Z,0.00
2023-02-02T07:04:36.216Z,3.00
2023-02-02T07:05:39.686Z,2.00
2023-02-02T07:06:42.474Z,0.00
2023-02-02T07:07:45.248Z,1.00
2023-02-02T07:08:54.582Z,0.00
2023-02-02T07:10:05.232Z,3.00
2023-02-02T07:11:10.550Z,5.00
2023-02-02T07:12:20.364Z,5.00
2023-02-02T07:13:24.463Z,3.00
2023-02-02T07:14:27.318Z,2.00
2023-02-02T07:15:29.959Z,2.25
2023-02-02T07:16:33.380Z,1.00
2023-02-02T07:17:36.091Z,2.50
2023-02-02T07:18:38.812Z,2.00
2023-02-02T07:19:46.753Z,0.75
2023-02-02T07:20:49.559Z,0.00
2023-02-02T07:21:52.219Z,2.00
2023-02-02T07:22:54.942Z,4.00
2023-02-02T07:23:58.801Z,3.00
2023-02-02T07:25:01.442Z,3.75
2023-02-02T07:26:13.771Z,3.00
2023-02-02T07:27:16.449Z,3.00
2023-02-02T07:28:19.051Z,2.00
2023-02-02T07:29:21.754Z,1.50
2023-02-02T07:30:24.369Z,0.00
2023-02-02T07:31:28.003Z,1.50
2023-02-02T07:32:33.358Z,2.75
2023-02-02T07:33:39.825Z,2.00
2023-02-02T07:34:46.531Z,2.00
2023-02-02T07:35:49.176Z,0.00
2023-02-02T07:36:51.882Z,3.75
2023-02-02T07:37:56.220Z,2.00
2023-02-02T07:38:59.001Z,3.75
2023-02-02T07:40:03.629Z,3.00
2023-02-02T07:41:06.454Z,5.75
2023-02-02T07:42:09.683Z,6.00
2023-02-02T07:43:12.602Z,3.00
2023-02-02T07:44:16.571Z,1.00
2023-02-02T07:45:27.551Z,2.00
2023-02-02T07:46:30.796Z,0.00
2023-02-02T07:47:33.471Z,0.50
2023-02-02T07:48:36.194Z,0.25
2023-02-02T07:49:41.380Z,0.00
2023-02-02T07:50:44.070Z,0.00
2023-02-02T07:51:48.613Z,0.50
2023-02-02T07:52:51.239Z,1.00
2023-02-02T07:53:55.802Z,0.00
2023-02-02T07:55:13.609Z,0.00
2023-02-02T07:56:22.477Z,0.00
2023-02-02T07:57:25.831Z,0.00
2023-02-02T07:58:28.476Z,0.00
2023-02-02T07:59:32.432Z,0.00
2023-02-02T08:00:35.264Z,1.00
2023-02-02T08:01:38.347Z,1.00
2023-02-02T08:02:41.045Z,0.00
2023-02-02T08:03:45.292Z,0.00
2023-02-02T08:04:48.703Z,0.00
2023-02-02T08:05:52.160Z,0.00
2023-02-02T08:06:55.121Z,0.00
2023-02-02T08:07:57.769Z,0.00
2023-02-02T08:09:01.672Z,0.00
2023-02-02T08:10:04.718Z,0.25
2023-02-02T08:11:11.101Z,3.00
2023-02-02T08:12:13.826Z,1.00
2023-02-02T08:13:19.532Z,3.00
2023-02-02T08:14:22.192Z,1.00
2023-02-02T08:15:27.812Z,0.25
2023-02-02T08:16:32.661Z,1.00
2023-02-02T08:17:35.418Z,1.00
2023-02-02T08:18:39.509Z,3.00
2023-02-02T08:19:42.169Z,2.00
2023-02-02T08:20:44.856Z,1.25
2023-02-02T08:21:47.511Z,1.00
2023-02-02T08:22:51.231Z,1.00
2023-02-02T08:23:56.792Z,1.00
2023-02-02T08:24:59.406Z,0.00
2023-02-02T08:26:31.046Z,0.00
2023-02-02T08:27:34.218Z,1.00
2023-02-02T08:28:41.239Z,0.00
2023-02-02T08:29:44.193Z,1.25
2023-02-02T08:30:47.707Z,3.00
2023-02-02T08:31:50.475Z,2.00
2023-02-02T08:32:53.158Z,0.00
2023-02-02T08:33:56.541Z,1.00
2023-02-02T08:35:00.897Z,0.00
2023-02-02T08:36:06.218Z,0.00
2023-02-02T08:37:08.886Z,1.00
2023-02-02T08:38:11.667Z,0.00
2023-02-02T08:39:15.496Z,0.00
2023-02-02T08:40:19.763Z,0.00
2023-02-02T08:41:25.052Z,0.00
2023-02-02T08:42:27.681Z,0.00
2023-02-02T08:43:30.573Z,0.00
2023-02-02T08:46:00.373Z,0.00
2023-02-02T08:46:01.994Z,0.00
2023-02-02T08:47:07.374Z,5.00
2023-02-02T08:48:13.004Z,3.00
2023-02-02T08:49:16.412Z,2.00
2023-02-02T08:50:19.637Z,0.25
2023-02-02T08:51:22.406Z,0.00
2023-02-02T08:52:25.914Z,0.00
2023-02-02T08:53:31.379Z,0.00
2023-02-02T08:54:33.998Z,0.00
2023-02-02T08:55:36.790Z,0.00
2023-02-02T08:56:39.531Z,0.00
2023-02-02T08:57:42.176Z,0.00
2023-02-02T08:58:50.160Z,0.00
2023-02-02T08:59:52.781Z,0.00
2023-02-02T09:00:57.077Z,0.00
2023-02-02T09:01:59.780Z,1.00
2023-02-02T09:03:04.705Z,0.25
2023-02-02T09:04:09.545Z,0.00
2023-02-02T09:05:12.249Z,0.00
2023-02-02T09:06:20.609Z,0.00
2023-02-02T09:07:23.297Z,0.00
2023-02-02T09:08:25.988Z,0.00
2023-02-02T09:09:30.632Z,0.00
2023-02-02T09:10:36.474Z,0.00
2023-02-02T09:11:39.177Z,0.00
2023-02-02T09:12:41.890Z,0.00
2023-02-02T09:13:46.861Z,0.00
2023-02-02T09:14:49.534Z,0.00
2023-02-02T09:15:52.148Z,0.00
2023-02-02T09:16:57.102Z,0.00
2023-02-02T09:17:59.814Z,0.00
2023-02-02T09:19:02.627Z,0.00
2023-02-02T09:20:05.984Z,0.00
2023-02-02T09:21:13.340Z,0.00
2023-02-02T09:22:17.353Z,0.00
2023-02-02T09:23:19.985Z,0.25
2023-02-02T09:24:22.698Z,0.00
2023-02-02T09:25:29.467Z,0.00
2023-02-02T09:26:32.188Z,0.00
2023-02-02T09:27:39.238Z,0.00
2023-02-02T09:28:47.360Z,0.00
2023-02-02T09:29:50.065Z,0.00
2023-02-02T09:30:54.733Z,0.00
2023-02-02T09:31:57.568Z,0.00
2023-02-02T09:33:00.273Z,0.00
2023-02-02T09:34:08.421Z,0.00
2023-02-02T09:35:11.170Z,0.00
2023-02-02T09:36:21.463Z,0.00
2023-02-02T09:37:26.918Z,3.00
2023-02-02T09:38:29.547Z,2.00
2023-02-02T09:39:33.332Z,1.00
2023-02-02T09:40:36.614Z,1.00
2023-02-02T09:41:39.227Z,3.00
2023-02-02T09:43:01.761Z,4.00
2023-02-02T09:44:16.591Z,2.25
2023-02-02T09:46:16.903Z,0.00
2023-02-02T09:47:26.556Z,0.00
2023-02-02T09:48:47.347Z,0.00
2023-02-02T09:50:07.700Z,0.00
2023-02-02T09:51:25.719Z,0.00
2023-02-02T09:52:34.998Z,0.25
2023-02-02T09:54:03.005Z,5.75
2023-02-02T09:55:36.130Z,8.00
2023-02-02T09:56:48.027Z,4.25
2023-02-02T09:57:57.760Z,5.00
2023-02-02T09:59:18.737Z,3.75
2023-02-02T10:00:32.782Z,2.00
2023-02-02T10:01:43.059Z,4.00
2023-02-02T10:02:51.028Z,6.00
2023-02-02T10:04:17.572Z,2.25
2023-02-02T10:05:26.575Z,1.00
2023-02-02T10:06:45.446Z,1.00
2023-02-02T10:07:54.102Z,0.75
2023-02-02T10:09:03.398Z,2.50
2023-02-02T10:10:40.040Z,1.00
2023-02-02T10:11:51.832Z,0.00
2023-02-02T10:13:07.136Z,0.00
2023-02-02T10:14:19.891Z,0.00
2023-02-02T10:15:41.494Z,0.00
2023-02-02T10:16:47.274Z,0.00
2023-02-02T10:18:02.292Z,0.00
2023-02-02T10:19:10.870Z,0.00
2023-02-02T10:20:54.012Z,3.00
2023-02-02T10:22:20.532Z,1.00
2023-02-02T10:23:38.972Z,1.00
2023-02-02T10:24:41.924Z,0.00
2023-02-02T10:25:56.324Z,0.00
2023-02-02T10:27:12.966Z,0.00
2023-02-02T10:28:20.979Z,0.00
2023-02-02T10:29:26.128Z,0.75
2023-02-02T10:31:01.770Z,4.00
2023-02-02T10:33:03.339Z,4.00
2023-02-02T10:34:17.511Z,1.00
2023-02-02T10:35:42.595Z,4.00
2023-02-02T10:37:03.126Z,4.00
2023-02-02T10:38:37.565Z,4.00
2023-02-02T10:39:54.093Z,0.00
2023-02-02T10:41:12.843Z,2.00
2023-02-02T10:42:45.385Z,1.00
2023-02-02T10:44:24.167Z,1.00
2023-02-02T10:45:26.834Z,0.00
2023-02-02T10:46:37.804Z,0.00
2023-02-02T10:47:40.497Z,1.00
2023-02-02T10:48:47.067Z,0.00
2023-02-02T10:50:09.544Z,0.00
2023-02-02T10:51:21.666Z,0.00
2023-02-02T10:52:32.904Z,0.00
2023-02-02T10:53:37.498Z,2.00
2023-02-02T10:55:00.920Z,2.00
2023-02-02T10:56:08.084Z,2.00
2023-02-02T10:57:24.371Z,1.00
2023-02-02T10:58:33.636Z,0.00
2023-02-02T10:59:48.509Z,0.00
2023-02-02T11:00:54.267Z,1.00
2023-02-02T11:01:57.012Z,0.00
2023-02-02T11:03:01.436Z,0.00
2023-02-02T11:04:22.741Z,0.00
2023-02-02T11:05:48.496Z,0.00
2023-02-02T11:06:52.562Z,0.00
2023-02-02T11:07:56.471Z,0.00
2023-02-02T11:09:01.993Z,2.00
2023-02-02T11:10:05.124Z,1.00
2023-02-02T11:11:31.960Z,0.25
2023-02-02T11:12:37.882Z,0.00
2023-02-02T11:14:00.407Z,0.00
2023-02-02T11:15:10.256Z,0.50
2023-02-02T11:16:15.675Z,3.50
2023-02-02T11:17:25.164Z,2.50
2023-02-02T11:18:32.018Z,2.00
2023-02-02T11:19:37.213Z,1.00
2023-02-02T11:20:39.924Z,3.00
2023-02-02T11:21:45.926Z,1.25
2023-02-02T11:22:48.694Z,0.00
2023-02-02T11:24:00.129Z,0.00
2023-02-02T11:25:09.095Z,0.00
2023-02-02T11:26:14.626Z,4.00
2023-02-02T11:27:17.218Z,3.00
2023-02-02T11:28:22.292Z,3.00
2023-02-02T11:29:55.375Z,2.25
2023-02-02T11:30:59.052Z,1.00
2023-02-02T11:32:28.652Z,0.00
2023-02-02T11:33:36.679Z,0.00
2023-02-02T11:34:39.396Z,0.00
2023-02-02T11:35:54.730Z,0.00
2023-02-02T11:37:13.851Z,1.00
2023-02-02T11:38:21.937Z,1.50
2023-02-02T11:39:26.231Z,2.00
2023-02-02T11:40:36.457Z,1.00
2023-02-02T11:41:39.686Z,0.00
2023-02-02T11:42:50.841Z,1.00
2023-02-02T11:43:55.552Z,0.00
2023-02-02T11:45:00.302Z,0.00
2023-02-02T11:46:07.024Z,0.00
2023-02-02T11:47:27.604Z,1.00
2023-02-02T11:48:35.037Z,3.00
2023-02-02T11:49:44.812Z,3.00
2023-02-02T11:50:55.854Z,3.25
2023-02-02T11:52:06.322Z,1.00
2023-02-02T11:53:25.804Z,0.00
2023-02-02T11:54:30.522Z,0.50
2023-02-02T11:55:34.044Z,0.00
2023-02-02T11:56:39.050Z,0.00
2023-02-02T11:57:41.766Z,1.00
2023-02-02T11:58:44.427Z,0.00
2023-02-02T11:59:50.159Z,0.00
2023-02-02T12:01:02.146Z,0.00
2023-02-02T12:02:15.619Z,0.00
2023-02-02T12:03:40.819Z,0.00
2023-02-02T12:04:46.370Z,0.00
2023-02-02T12:05:53.569Z,0.00
2023-02-02T12:06:56.572Z,0.00
2023-02-02T12:08:04.321Z,0.00
2023-02-02T12:09:22.687Z,0.00
2023-02-02T12:10:47.489Z,0.00
2023-02-02T12:12:09.159Z,0.00
2023-02-02T12:13:34.395Z,0.00
2023-02-02T12:15:00.936Z,0.00
2023-02-02T12:16:24.694Z,0.00
2023-02-02T12:17:37.318Z,0.00
2023-02-02T12:19:05.866Z,1.00
2023-02-02T12:20:20.573Z,0.00
2023-02-02T12:21:46.722Z,0.00
2023-02-02T12:23:01.137Z,0.00
2023-02-02T12:24:17.276Z,0.00
2023-02-02T12:26:06.387Z,0.00
2023-02-02T12:27:11.829Z,0.00
2023-02-02T12:28:42.101Z,0.00
2023-02-02T12:30:15.381Z,0.00
2023-02-02T12:31:30.102Z,0.00
2023-02-02T12:33:00.110Z,0.00
2023-02-02T12:34:10.741Z,0.00
2023-02-02T12:35:30.373Z,0.00
2023-02-02T12:36:51.361Z,0.00
2023-02-02T12:38:31.437Z,0.00
2023-02-02T12:39:57.669Z,0.00
2023-02-02T12:41:10.945Z,0.00
2023-02-02T12:42:41.779Z,0.00
2023-02-02T12:43:48.425Z,0.00
2023-02-02T12:45:18.780Z,0.00
2023-02-02T12:46:30.406Z,0.00
2023-02-02T12:47:37.104Z,0.00
2023-02-02T12:48:51.667Z,0.00
2023-02-02T12:50:06.318Z,0.00
2023-02-02T12:51:21.326Z,0.00
2023-02-02T12:52:36.800Z,0.00
2023-02-02T12:54:33.365Z,1.75
2023-02-02T12:55:29.776Z,1.00
2023-02-02T12:56:38.244Z,0.00
2023-02-02T12:58:02.372Z,0.00
2023-02-02T12:59:27.259Z,0.00
2023-02-02T13:00:44.868Z,0.00
2023-02-02T13:01:53.359Z,0.00
2023-02-02T13:03:08.256Z,0.00
2023-02-02T13:04:14.974Z,0.00
2023-02-02T13:05:20.589Z,0.00
2023-02-02T13:06:51.587Z,0.00
2023-02-02T13:07:59.528Z,0.00
2023-02-02T13:09:13.657Z,2.00
2023-02-02T13:10:22.052Z,1.00
2023-02-02T13:11:36.628Z,0.00
2023-02-02T13:12:49.002Z,1.00
2023-02-02T13:13:52.889Z,0.00
2023-02-02T13:14:59.699Z,0.00
2023-02-02T13:16:11.615Z,1.00
2023-02-02T13:17:20.597Z,0.00
2023-02-02T13:18:35.592Z,0.00
2023-02-02T13:19:54.715Z,0.00
2023-02-02T13:21:03.821Z,1.00
2023-02-02T13:22:14.450Z,0.00
2023-02-02T13:23:32.182Z,0.00
2023-02-02T13:24:39.938Z,0.00
2023-02-02T13:25:56.105Z,0.00
2023-02-02T13:27:04.754Z,0.00
2023-02-02T13:28:20.626Z,0.00
2023-02-02T13:29:48.412Z,0.00
2023-02-02T13:30:53.534Z,0.00
2023-02-02T13:32:07.933Z,0.00
2023-02-02T13:33:27.142Z,0.00
2023-02-02T13:34:51.446Z,0.00
2023-02-02T13:36:01.446Z,0.00
2023-02-02T13:37:10.412Z,0.00
2023-02-02T13:38:35.915Z,0.00
2023-02-02T13:39:44.791Z,0.00
2023-02-02T13:40:48.414Z,0.00
2023-02-02T13:41:53.049Z,1.00
2023-02-02T13:43:20.715Z,0.00
2023-02-02T13:44:35.334Z,0.00
2023-02-02T13:46:23.738Z,4.50
2023-02-02T13:47:57.478Z,2.00
2023-02-02T13:49:28.592Z,4.25
2023-02-02T13:50:33.804Z,9.75
2023-02-02T13:51:59.711Z,8.75
2023-02-02T13:53:12.770Z,2.00
2023-02-02T13:54:21.178Z,0.00
2023-02-02T13:55:59.168Z,0.00
2023-02-02T13:57:35.486Z,0.00
2023-02-02T13:59:15.648Z,0.00
2023-02-02T14:00:41.997Z,0.00
2023-02-02T14:01:49.310Z,1.00
2023-02-02T14:03:03.293Z,1.25
2023-02-02T14:04:07.920Z,1.00
2023-02-02T14:05:28.726Z,1.00
2023-02-02T14:06:57.362Z,0.00
2023-02-02T14:08:20.271Z,0.00
2023-02-02T14:09:25.233Z,0.00
2023-02-02T14:10:37.023Z,0.00
2023-02-02T14:11:45.818Z,0.00
2023-02-02T14:12:48.846Z,0.00
2023-02-02T14:14:31.314Z,0.00
2023-02-02T14:15:45.734Z,0.00
2023-02-02T14:16:53.576Z,0.00
2023-02-02T14:17:56.717Z,0.00
2023-02-02T14:19:04.115Z,0.00
2023-02-02T14:20:18.406Z,0.00
2023-02-02T14:21:34.602Z,0.00
2023-02-02T14:22:43.062Z,0.00
2023-02-02T14:23:52.288Z,0.00
2023-02-02T14:24:55.188Z,0.00
2023-02-02T14:26:21.396Z,0.00
2023-02-02T14:27:30.448Z,0.00
2023-02-02T14:28:45.323Z,0.00
2023-02-02T14:29:47.931Z,0.00
2023-02-02T14:31:31.274Z,0.00
2023-02-02T14:32:43.310Z,0.00
2023-02-02T14:33:51.031Z,0.00
2023-02-02T14:34:59.204Z,0.50
2023-02-02T14:37:25.175Z,0.00
2023-02-02T14:39:13.954Z,0.00
2023-02-02T14:40:16.549Z,0.00
2023-02-02T14:41:52.027Z,0.00
2023-02-02T14:43:25.413Z,0.00
2023-02-02T14:44:29.852Z,0.00
2023-02-02T14:45:43.371Z,0.00
2023-02-02T14:46:50.182Z,0.00
2023-02-02T14:47:57.982Z,1.00
2023-02-02T14:49:02.127Z,1.00
2023-02-02T14:50:04.950Z,0.00
2023-02-02T14:51:35.611Z,0.00
2023-02-02T14:52:38.348Z,0.00
2023-02-02T14:53:50.392Z,1.00
2023-02-02T14:54:53.182Z,4.00
2023-02-02T14:56:14.709Z,3.00
2023-02-02T14:57:29.351Z,1.00
2023-02-02T14:58:38.370Z,0.00
2023-02-02T14:59:48.205Z,3.50
2023-02-02T15:01:17.536Z,2.00
2023-02-02T15:02:27.327Z,3.00
2023-02-02T15:03:45.592Z,2.00
2023-02-02T15:04:50.939Z,1.00
2023-02-02T15:06:07.766Z,2.00
2023-02-02T15:07:25.679Z,3.00
2023-02-02T15:08:29.272Z,1.75
2023-02-02T15:09:39.265Z,3.00
2023-02-02T15:10:57.769Z,5.00
2023-02-02T15:12:10.221Z,3.75
2023-02-02T15:13:17.744Z,6.50
2023-02-02T15:14:21.527Z,5.50
2023-02-02T15:15:33.059Z,3.75
2023-02-02T15:16:39.989Z,3.00